Time;durP1;ratioP1;P1;durP2;ratioP2;P2;SDS_P1;SDS_P2;PMS_P1;PMS_P2;Temp;Humidity;BMP_temperature;BMP_pressure;BME280_temperature;BME280_humidity;BME280_pressure;Samples;Min_cycle;Max_cycle;Signal;HPM_P1;HPM_P2
2020/12/14 00:01:11;;;;;;;16.33;15.13;;;0.90;84.70;;;;;;4986290;29;20053;-79
2020/12/14 00:03:45;;;;;;;15.45;14.35;;;1.00;84.60;;;;;;4988820;29;20050;-81
2020/12/14 00:06:17;;;;;;;15.00;13.90;;;1.10;85.20;;;;;;4984228;29;20054;-82
2020/12/14 00:08:48;;;;;;;15.57;14.48;;;1.10;84.50;;;;;;4985074;29;20093;-81
2020/12/14 00:11:20;;;;;;;15.55;14.35;;;1.10;83.80;;;;;;4944412;29;20060;-81
2020/12/14 00:13:51;;;;;;;16.67;15.38;;;1.00;83.80;;;;;;4987787;29;20075;-80
2020/12/14 00:16:22;;;;;;;15.77;14.57;;;1.00;83.90;;;;;;4974664;29;20386;-80
2020/12/14 00:18:54;;;;;;;15.68;14.48;;;1.00;83.80;;;;;;4984164;29;20589;-80
2020/12/14 00:21:26;;;;;;;15.20;14.10;;;1.00;83.90;;;;;;4984911;29;20670;-80
2020/12/14 00:23:58;;;;;;;16.85;15.35;;;1.10;83.80;;;;;;4984810;29;20082;-82
2020/12/14 00:26:29;;;;;;;15.63;14.43;;;1.10;83.40;;;;;;4996398;29;20429;-81
2020/12/14 00:29:00;;;;;;;14.52;13.50;;;1.10;82.90;;;;;;4985201;29;20046;-80
2020/12/14 00:31:32;;;;;;;14.55;13.55;;;1.20;82.50;;;;;;4971508;29;20058;-82
2020/12/14 00:34:03;;;;;;;14.13;13.13;;;1.20;82.70;;;;;;4972906;29;20038;-81
2020/12/14 00:36:35;;;;;;;14.10;13.07;;;1.20;82.80;;;;;;4985451;29;20740;-81
2020/12/14 00:39:06;;;;;;;14.60;13.60;;;1.20;82.90;;;;;;4982672;29;20047;-79
2020/12/14 00:41:39;;;;;;;14.63;13.57;;;1.20;83.30;;;;;;4984130;29;20064;-81
2020/12/14 00:44:10;;;;;;;14.50;13.43;;;1.20;83.00;;;;;;4983677;29;20073;-80
2020/12/14 00:46:45;;;;;;;14.80;13.70;;;1.10;82.70;;;;;;4984239;29;20038;-80
2020/12/14 00:49:16;;;;;;;14.93;13.93;;;1.10;83.00;;;;;;4999165;29;20059;-80
2020/12/14 00:51:48;;;;;;;14.20;13.20;;;1.10;83.20;;;;;;4982390;29;20042;-79
2020/12/14 00:54:19;;;;;;;14.57;13.57;;;1.10;83.70;;;;;;4971974;29;20463;-78
2020/12/14 00:56:52;;;;;;;14.52;13.52;;;1.10;83.10;;;;;;4982741;29;20047;-79
2020/12/14 00:59:23;;;;;;;14.30;13.30;;;1.10;83.30;;;;;;4986126;29;20153;-81
2020/12/14 01:01:55;;;;;;;14.20;13.20;;;1.10;83.40;;;;;;4985983;29;20043;-81
2020/12/14 01:04:27;;;;;;;14.52;13.52;;;1.20;84.00;;;;;;4981234;29;20493;-81
2020/12/14 01:06:58;;;;;;;14.48;13.48;;;1.10;83.20;;;;;;4984010;29;20062;-82
2020/12/14 01:09:29;;;;;;;14.38;13.38;;;0.90;83.90;;;;;;4986855;29;20407;-81
2020/12/14 01:12:02;;;;;;;15.07;14.05;;;1.00;83.80;;;;;;4983544;29;20102;-80
2020/12/14 01:14:33;;;;;;;14.80;13.70;;;1.00;84.50;;;;;;4984337;29;20110;-79
2020/12/14 01:17:05;;;;;;;14.63;13.57;;;1.00;84.80;;;;;;4974887;29;20103;-79
2020/12/14 01:19:36;;;;;;;14.77;13.77;;;1.00;84.90;;;;;;4988371;29;20050;-79
2020/12/14 01:22:08;;;;;;;14.90;13.90;;;1.10;85.00;;;;;;4987065;29;20058;-76
2020/12/14 01:24:39;;;;;;;15.20;14.10;;;1.10;84.90;;;;;;4977692;29;20183;-79
2020/12/14 01:27:13;;;;;;;16.55;15.15;;;1.20;85.00;;;;;;4987791;29;20138;-79
2020/12/14 01:29:45;;;;;;;14.93;13.93;;;1.20;84.30;;;;;;4987448;29;20046;-80
2020/12/14 01:32:16;;;;;;;15.18;14.07;;;1.10;83.90;;;;;;4990456;29;20784;-79
2020/12/14 01:34:48;;;;;;;15.00;13.90;;;1.00;84.20;;;;;;4988492;29;20099;-80
2020/12/14 01:37:19;;;;;;;15.23;14.13;;;0.80;84.30;;;;;;4988089;29;20055;-79
2020/12/14 01:39:50;;;;;;;15.82;14.73;;;0.60;84.80;;;;;;4986974;29;20489;-80
2020/12/14 01:42:22;;;;;;;16.23;15.05;;;0.60;85.40;;;;;;4988319;29;20068;-79
2020/12/14 01:44:54;;;;;;;15.25;14.15;;;0.60;85.40;;;;;;4986200;29;20058;-79
2020/12/14 01:47:34;;;;;;;15.52;14.43;;;0.70;85.70;;;;;;4986360;29;20428;-79
2020/12/14 01:50:07;;;;;;;14.75;13.75;;;0.60;85.80;;;;;;4984846;29;20552;-77
2020/12/14 01:52:46;;;;;;;14.60;13.60;;;0.70;85.70;;;;;;4985139;29;20438;-79
2020/12/14 01:55:19;;;;;;;14.90;13.90;;;0.70;86.20;;;;;;4983841;29;20050;-79
2020/12/14 01:57:50;;;;;;;15.30;14.20;;;0.60;85.70;;;;;;4977050;29;20073;-78
2020/12/14 02:00:22;;;;;;;15.50;14.40;;;0.60;86.30;;;;;;4986753;29;20146;-79
2020/12/14 02:02:53;;;;;;;15.43;14.32;;;0.60;86.60;;;;;;4986712;29;20046;-79
2020/12/14 02:05:25;;;;;;;15.73;14.52;;;0.70;86.80;;;;;;4988667;29;20047;-80
2020/12/14 02:07:57;;;;;;;15.85;14.57;;;0.70;85.50;;;;;;4984902;29;20071;-79
2020/12/14 02:10:28;;;;;;;15.45;14.35;;;0.50;85.70;;;;;;4988735;29;20054;-81
2020/12/14 02:13:00;;;;;;;15.70;14.60;;;0.40;85.70;;;;;;4986817;29;20066;-80
2020/12/14 02:15:31;;;;;;;15.65;14.55;;;0.30;85.50;;;;;;4975195;29;20046;-80
2020/12/14 02:18:03;;;;;;;16.02;14.73;;;0.40;85.80;;;;;;4989738;29;20050;-81
2020/12/14 02:20:35;;;;;;;14.50;13.50;;;0.50;85.60;;;;;;4986316;29;20785;-81
2020/12/14 02:23:06;;;;;;;15.07;14.07;;;0.60;86.40;;;;;;4987514;29;20083;-81
2020/12/14 02:25:38;;;;;;;14.65;13.65;;;0.60;87.10;;;;;;4987286;29;20106;-81
2020/12/14 02:28:09;;;;;;;15.18;14.18;;;0.70;86.60;;;;;;4983782;29;20038;-81
2020/12/14 02:30:40;;;;;;;15.00;14.00;;;0.80;86.40;;;;;;4986442;29;20560;-82
2020/12/14 02:33:12;;;;;;;15.50;14.40;;;0.80;86.10;;;;;;4986456;29;20148;-81
2020/12/14 02:35:45;;;;;;;15.75;14.65;;;0.90;86.00;;;;;;4987085;29;20050;-81
2020/12/14 02:38:17;;;;;;;15.27;14.18;;;0.90;85.70;;;;;;4994508;29;20046;-80
2020/12/14 02:40:49;;;;;;;15.70;14.63;;;1.00;85.30;;;;;;4970452;29;20073;-80
2020/12/14 02:43:21;;;;;;;15.48;14.48;;;1.00;85.40;;;;;;4989337;29;20103;-81
2020/12/14 02:45:53;;;;;;;15.25;14.18;;;1.00;85.00;;;;;;4986633;29;20091;-80
2020/12/14 02:48:25;;;;;;;15.30;14.20;;;1.00;84.80;;;;;;4988857;29;20122;-80
2020/12/14 02:50:56;;;;;;;15.43;14.30;;;1.00;84.00;;;;;;4985991;29;20054;-80
2020/12/14 02:53:27;;;;;;;14.93;13.93;;;0.90;83.90;;;;;;4986601;29;20063;-80
2020/12/14 02:55:59;;;;;;;14.80;13.80;;;0.90;83.60;;;;;;4986561;29;20058;-80
2020/12/14 02:58:31;;;;;;;14.85;13.85;;;0.90;83.90;;;;;;4987839;29;20401;-80
2020/12/14 03:01:03;;;;;;;14.40;13.40;;;0.90;84.10;;;;;;4986944;29;20082;-80
2020/12/14 03:03:34;;;;;;;15.05;14.05;;;0.80;84.90;;;;;;4983235;29;20131;-81
2020/12/14 03:06:06;;;;;;;15.35;14.25;;;0.90;85.00;;;;;;4984866;29;20450;-80
2020/12/14 03:08:37;;;;;;;14.60;13.60;;;0.90;84.70;;;;;;4984953;29;20046;-80
2020/12/14 03:11:08;;;;;;;14.85;13.85;;;0.90;84.70;;;;;;4985049;29;20050;-80
2020/12/14 03:13:40;;;;;;;14.77;13.77;;;0.90;84.90;;;;;;4984709;29;20050;-80
2020/12/14 03:16:11;;;;;;;14.82;13.82;;;0.90;84.80;;;;;;4984288;29;20098;-80
2020/12/14 03:18:44;;;;;;;15.65;14.55;;;1.00;84.70;;;;;;4983008;29;20050;-80
2020/12/14 03:21:15;;;;;;;16.23;14.95;;;1.00;84.40;;;;;;4984644;29;20050;-80
2020/12/14 03:23:46;;;;;;;14.60;13.60;;;1.00;84.00;;;;;;4971316;29;20111;-80
2020/12/14 03:26:18;;;;;;;14.73;13.73;;;1.00;83.60;;;;;;4985725;29;20110;-81
2020/12/14 03:28:50;;;;;;;14.90;13.80;;;1.00;83.80;;;;;;4984665;29;20046;-80
2020/12/14 03:31:22;;;;;;;14.77;13.77;;;1.00;83.60;;;;;;4984716;29;20047;-80
2020/12/14 03:33:55;;;;;;;14.55;13.55;;;1.00;83.30;;;;;;4984382;29;20038;-80
2020/12/14 03:36:27;;;;;;;14.65;13.52;;;1.00;83.60;;;;;;4985733;29;20057;-81
2020/12/14 03:38:58;;;;;;;14.20;13.20;;;1.00;83.60;;;;;;4985924;29;20091;-80
2020/12/14 03:41:30;;;;;;;14.20;13.20;;;1.10;82.60;;;;;;4984376;29;20118;-80
2020/12/14 03:44:02;;;;;;;13.73;12.82;;;0.90;82.90;;;;;;4987066;29;20484;-80
2020/12/14 03:46:35;;;;;;;14.52;13.52;;;0.90;83.60;;;;;;4989896;29;20118;-81
2020/12/14 03:49:06;;;;;;;14.27;13.27;;;0.80;82.10;;;;;;4974144;29;20074;-80
2020/12/14 03:51:38;;;;;;;13.60;12.70;;;0.70;82.50;;;;;;4982919;29;20054;-81
2020/12/14 03:54:09;;;;;;;14.52;13.52;;;0.70;82.80;;;;;;4986345;29;20102;-80
2020/12/14 03:56:41;;;;;;;13.93;12.82;;;0.80;82.70;;;;;;4982281;29;20061;-80
2020/12/14 03:59:12;;;;;;;14.20;13.20;;;0.80;81.80;;;;;;4976358;29;20102;-81
2020/12/14 04:01:45;;;;;;;14.48;13.48;;;0.80;82.50;;;;;;4983474;29;20543;-80
2020/12/14 04:04:16;;;;;;;14.18;13.18;;;0.80;82.60;;;;;;4983830;29;20086;-80
2020/12/14 04:06:48;;;;;;;13.85;12.95;;;0.80;82.50;;;;;;4983146;29;20054;-80
2020/12/14 04:09:19;;;;;;;13.88;12.98;;;0.70;82.30;;;;;;4983158;29;20050;-80
2020/12/14 04:11:51;;;;;;;13.75;12.85;;;0.70;82.90;;;;;;4985624;29;20038;-79
2020/12/14 04:14:23;;;;;;;14.50;13.50;;;0.70;83.20;;;;;;4970328;29;20685;-81
2020/12/14 04:16:54;;;;;;;14.30;13.30;;;0.70;82.90;;;;;;4978283;29;20074;-80
2020/12/14 04:19:26;;;;;;;14.60;13.60;;;0.70;82.90;;;;;;4969954;29;20130;-81
2020/12/14 04:22:00;;;;;;;14.90;13.80;;;0.70;82.70;;;;;;4985402;29;20087;-81
2020/12/14 04:24:32;;;;;;;14.55;13.55;;;0.70;82.90;;;;;;4987425;29;20072;-82
2020/12/14 04:27:04;;;;;;;14.38;13.38;;;0.70;82.50;;;;;;4985646;29;20106;-81
2020/12/14 04:29:35;;;;;;;14.48;13.48;;;0.70;82.60;;;;;;4987692;29;20062;-79
2020/12/14 04:32:07;;;;;;;14.40;13.40;;;0.70;82.70;;;;;;4985147;29;20050;-81
2020/12/14 04:34:38;;;;;;;14.27;13.27;;;0.70;83.40;;;;;;4986979;29;20074;-82
2020/12/14 04:37:10;;;;;;;15.15;14.05;;;0.70;84.40;;;;;;4984422;29;20425;-82
2020/12/14 04:39:41;;;;;;;14.75;13.75;;;0.70;84.30;;;;;;4986327;29;20066;-82
2020/12/14 04:42:13;;;;;;;14.73;13.73;;;0.70;83.30;;;;;;4987291;29;20513;-82
2020/12/14 04:44:45;;;;;;;14.48;13.48;;;0.70;81.80;;;;;;4986965;29;20058;-81
2020/12/14 04:47:17;;;;;;;14.45;13.45;;;0.60;81.90;;;;;;4984858;29;20422;-81
2020/12/14 04:49:49;;;;;;;14.35;13.35;;;0.60;81.60;;;;;;4984851;29;20050;-81
2020/12/14 04:52:22;;;;;;;14.32;13.32;;;0.60;81.80;;;;;;4984577;29;20054;-81
2020/12/14 04:54:56;;;;;;;13.70;12.80;;;0.60;82.40;;;;;;5002510;29;20078;-80
2020/12/14 04:57:31;;;;;;;13.80;12.90;;;0.60;82.50;;;;;;4983299;29;20810;-82
2020/12/14 05:00:06;;;;;;;14.60;13.60;;;0.60;83.20;;;;;;4985688;29;20092;-82
2020/12/14 05:02:38;;;;;;;14.15;13.18;;;0.60;82.70;;;;;;4977605;29;20050;-81
2020/12/14 05:05:13;;;;;;;14.80;13.80;;;0.60;82.60;;;;;;4975001;29;20056;-81
2020/12/14 05:07:47;;;;;;;14.80;13.80;;;0.60;82.60;;;;;;4985539;29;20065;-80
2020/12/14 05:10:25;;;;;;;14.38;13.38;;;0.60;82.40;;;;;;4985315;29;20077;-81
2020/12/14 05:12:56;;;;;;;15.13;13.95;;;0.40;82.50;;;;;;4986405;29;20965;-81
2020/12/14 05:15:30;;;;;;;15.05;13.90;;;0.40;82.80;;;;;;4984356;29;20065;-80
2020/12/14 05:18:15;;;;;;;15.43;14.23;;;0.30;82.30;;;;;;4988271;29;20058;-80
2020/12/14 05:21:03;;;;;;;14.88;13.82;;;0.00;82.20;;;;;;4986834;29;20050;-80
2020/12/14 05:23:35;;;;;;;15.02;14.02;;;0.00;83.30;;;;;;4985866;29;20139;-81
2020/12/14 05:26:10;;;;;;;14.73;13.73;;;0.00;83.70;;;;;;4988791;29;20054;-80
2020/12/14 05:28:41;;;;;;;15.07;13.98;;;0.00;83.60;;;;;;4988378;29;20050;-80
2020/12/14 05:31:19;;;;;;;15.05;14.05;;;-0.20;83.50;;;;;;4988602;29;20083;-80
2020/12/14 05:34:09;;;;;;;15.05;13.95;;;-0.20;83.00;;;;;;4985766;29;20589;-80
2020/12/14 05:36:40;;;;;;;14.93;13.82;;;-0.20;83.10;;;;;;4987483;29;20632;-79
2020/12/14 05:39:24;;;;;;;14.30;13.30;;;-0.10;82.60;;;;;;4985873;29;20467;-80
2020/12/14 05:42:12;;;;;;;14.68;13.65;;;-0.20;83.50;;;;;;4990040;29;20049;-79
2020/12/14 05:44:49;;;;;;;14.18;13.18;;;-0.20;84.30;;;;;;4986391;29;20042;-79
2020/12/14 05:47:42;;;;;;;14.52;13.52;;;-0.10;85.50;;;;;;4986977;29;20069;-80
2020/12/14 05:50:14;;;;;;;14.20;13.20;;;0.00;85.30;;;;;;4986901;29;20050;-79
2020/12/14 05:52:49;;;;;;;14.60;13.60;;;0.10;84.90;;;;;;4987254;29;20065;-80
2020/12/14 05:55:22;;;;;;;14.35;13.35;;;0.10;84.50;;;;;;4961518;29;20137;-79
2020/12/14 05:57:59;;;;;;;14.38;13.38;;;0.20;84.70;;;;;;4988577;29;20436;-81
2020/12/14 06:00:31;;;;;;;14.27;13.27;;;0.30;84.30;;;;;;4987127;29;20047;-81
2020/12/14 06:03:04;;;;;;;14.20;13.20;;;0.30;84.00;;;;;;4973532;29;20050;-80
2020/12/14 06:05:36;;;;;;;13.98;12.98;;;0.30;83.70;;;;;;4983982;29;20058;-79
2020/12/14 06:08:43;;;;;;;15.73;14.50;;;0.30;83.10;;;;;;4976672;29;20045;-80
2020/12/14 06:11:16;;;;;;;13.38;12.48;;;0.20;83.70;;;;;;4985333;29;20047;-77
2020/12/14 06:13:49;;;;;;;13.82;12.82;;;0.30;83.70;;;;;;4985551;29;20049;-76
2020/12/14 06:16:26;;;;;;;14.02;13.02;;;0.20;84.10;;;;;;4985789;29;20111;-79
2020/12/14 06:18:58;;;;;;;13.77;12.85;;;0.30;84.00;;;;;;4987518;29;20047;-79
2020/12/14 06:21:47;;;;;;;14.10;13.10;;;0.30;84.10;;;;;;4970242;29;20509;-81
2020/12/14 06:24:25;;;;;;;14.32;13.30;;;0.30;83.80;;;;;;4984578;29;20144;-80
2020/12/14 06:26:57;;;;;;;15.02;14.02;;;0.30;83.50;;;;;;4985205;29;20055;-82
2020/12/14 06:29:40;;;;;;;14.10;13.10;;;0.40;84.40;;;;;;4985449;29;20111;-83
2020/12/14 06:32:41;;;;;;;14.20;13.10;;;0.30;84.00;;;;;;4979010;29;20055;-84
2020/12/14 06:35:15;;;;;;;14.15;13.05;;;0.20;83.30;;;;;;4971331;29;20497;-78
2020/12/14 06:37:54;;;;;;;13.73;12.73;;;0.20;83.60;;;;;;4986751;29;20038;-80
2020/12/14 06:40:25;;;;;;;13.65;12.68;;;0.20;83.60;;;;;;4949372;29;20107;-80
2020/12/14 06:42:57;;;;;;;14.00;13.00;;;0.20;83.70;;;;;;4987372;29;20052;-81
2020/12/14 06:45:29;;;;;;;13.60;12.70;;;0.20;83.90;;;;;;4969408;29;20050;-82
2020/12/14 06:48:02;;;;;;;13.50;12.60;;;0.20;83.90;;;;;;4989422;29;20046;-80
2020/12/14 06:50:37;;;;;;;13.60;12.70;;;0.30;84.20;;;;;;4969918;29;20070;-80
2020/12/14 06:53:40;;;;;;;13.40;12.50;;;0.30;84.20;;;;;;4985199;29;20046;-80
2020/12/14 06:56:36;;;;;;;13.90;12.90;;;0.30;83.00;;;;;;4979817;29;20046;-81
2020/12/14 06:59:34;;;;;;;15.98;14.68;;;0.30;83.30;;;;;;4985619;29;20644;-80
2020/12/14 07:02:07;;;;;;;16.23;14.93;;;0.40;81.80;;;;;;4963536;29;20053;-80
2020/12/14 07:04:40;;;;;;;13.25;12.35;;;0.40;82.30;;;;;;4984092;29;20054;-80
2020/12/14 07:07:12;;;;;;;12.85;11.95;;;0.40;83.00;;;;;;4996223;29;20125;-81
2020/12/14 07:09:43;;;;;;;12.98;12.07;;;0.30;83.00;;;;;;4985920;29;20057;-80
2020/12/14 07:12:18;;;;;;;12.77;11.88;;;0.40;82.70;;;;;;4970649;29;20075;-76
2020/12/14 07:14:52;;;;;;;16.05;14.73;;;0.40;82.40;;;;;;4988834;29;20042;-78
2020/12/14 07:17:25;;;;;;;119.97;65.07;;;0.50;82.00;;;;;;4984471;29;20038;-78
2020/12/14 07:20:01;;;;;;;13.43;12.43;;;0.50;82.10;;;;;;4985837;29;20038;-79
2020/12/14 07:22:49;;;;;;;13.02;12.13;;;0.40;82.90;;;;;;4985522;29;20482;-79
2020/12/14 07:25:23;;;;;;;15.50;14.23;;;0.50;82.40;;;;;;4986107;29;20540;-79
2020/12/14 07:27:54;;;;;;;16.33;14.93;;;0.50;81.60;;;;;;4976449;29;20046;-78
2020/12/14 07:30:26;;;;;;;14.75;13.55;;;0.30;79.90;;;;;;4982104;29;20055;-79
2020/12/14 07:32:59;;;;;;;13.55;12.55;;;0.30;80.00;;;;;;4983757;29;20133;-81
2020/12/14 07:35:31;;;;;;;12.68;11.77;;;0.30;81.00;;;;;;4972590;29;20053;-80
2020/12/14 07:38:10;;;;;;;12.40;11.50;;;0.30;81.80;;;;;;4960256;29;20046;-80
2020/12/14 07:40:41;;;;;;;13.07;12.07;;;0.30;82.10;;;;;;4980027;29;20446;-78
2020/12/14 07:43:18;;;;;;;14.82;13.30;;;0.40;81.80;;;;;;4962633;29;20302;-79
2020/12/14 07:45:50;;;;;;;13.02;12.02;;;0.40;81.70;;;;;;4982615;29;20126;-79
2020/12/14 07:48:21;;;;;;;13.02;12.02;;;0.40;80.40;;;;;;4969876;29;20062;-78
2020/12/14 07:50:53;;;;;;;13.75;12.63;;;0.40;80.10;;;;;;4981804;29;20050;-78
2020/12/14 07:53:24;;;;;;;13.32;12.32;;;0.40;79.80;;;;;;4983053;29;20049;-79
2020/12/14 07:56:02;;;;;;;14.05;12.90;;;0.40;79.80;;;;;;4981178;29;20122;-80
2020/12/14 07:58:43;;;;;;;14.90;13.60;;;0.40;79.10;;;;;;4980685;29;20054;-81
2020/12/14 08:01:18;;;;;;;;;;;0.40;78.90;;;;;;4979575;29;20099;-78
2020/12/14 08:03:49;;;;;;;16.92;15.45;;;0.40;79.20;;;;;;4971838;29;19931;-78
2020/12/14 08:06:21;;;;;;;13.63;12.50;;;0.40;78.50;;;;;;4982821;29;20058;-78
2020/12/14 08:08:53;;;;;;;13.18;12.13;;;0.30;79.30;;;;;;4985421;29;20589;-78
2020/12/14 08:11:26;;;;;;;13.88;12.77;;;0.20;79.90;;;;;;4982231;29;20534;-78
2020/12/14 08:13:58;;;;;;;12.80;11.90;;;0.30;81.00;;;;;;4984227;29;20054;-78
2020/12/14 08:16:29;;;;;;;12.10;11.20;;;0.40;81.60;;;;;;4981651;29;20050;-78
2020/12/14 08:19:01;;;;;;;20.67;18.75;;;0.40;82.60;;;;;;4984851;29;20050;-78
2020/12/14 08:21:35;;;;;;;15.93;14.52;;;0.50;81.40;;;;;;4982991;29;20123;-78
2020/12/14 08:24:10;;;;;;;14.15;13.05;;;0.50;81.80;;;;;;4985503;29;20038;-78
2020/12/14 08:26:43;;;;;;;14.48;13.38;;;0.60;82.20;;;;;;4980847;29;20051;-78
2020/12/14 08:29:19;;;;;;;16.02;14.63;;;0.60;82.00;;;;;;4974362;29;20470;-78
2020/12/14 08:31:50;;;;;;;14.25;13.10;;;0.70;81.10;;;;;;4981002;29;20130;-78
2020/12/14 08:34:33;;;;;;;14.18;13.07;;;0.60;79.50;;;;;;4969672;29;20118;-78
2020/12/14 08:37:05;;;;;;;12.93;11.93;;;0.50;80.40;;;;;;4983058;29;20043;-78
2020/12/14 08:39:37;;;;;;;13.88;12.77;;;0.50;80.70;;;;;;4983762;29;20053;-79
2020/12/14 08:42:14;;;;;;;13.75;12.65;;;0.50;80.90;;;;;;4983066;29;20574;-79
2020/12/14 08:44:45;;;;;;;14.40;13.20;;;0.60;81.20;;;;;;4983537;29;20053;-80
2020/12/14 08:47:17;;;;;;;15.10;13.80;;;0.70;82.00;;;;;;4983670;29;20114;-81
2020/12/14 08:49:49;;;;;;;14.23;13.02;;;0.80;81.90;;;;;;4983840;29;20467;-79
2020/12/14 08:52:21;;;;;;;16.77;15.15;;;0.90;82.10;;;;;;4984269;29;20050;-78
2020/12/14 08:54:56;;;;;;;17.08;15.48;;;1.00;81.30;;;;;;4985555;29;20046;-79
2020/12/14 08:57:29;;;;;;;14.75;13.50;;;1.00;80.50;;;;;;4982971;29;20154;-79
2020/12/14 09:00:12;;;;;;;14.43;13.32;;;1.00;80.60;;;;;;4975119;29;20099;-80
2020/12/14 09:02:48;;;;;;;14.40;13.18;;;1.00;80.30;;;;;;4986357;29;20593;-80
2020/12/14 09:05:20;;;;;;;14.40;13.18;;;0.90;80.40;;;;;;4986341;29;20190;-78
2020/12/14 09:07:51;;;;;;;15.48;14.07;;;0.80;80.50;;;;;;4985518;29;20509;-78
2020/12/14 09:10:23;;;;;;;15.50;14.10;;;0.70;81.30;;;;;;4984683;29;20066;-79
2020/12/14 09:13:04;;;;;;;13.93;12.82;;;0.70;82.10;;;;;;4975138;29;20098;-78
2020/12/14 09:15:52;;;;;;;14.55;13.35;;;0.80;82.40;;;;;;4983377;29;20043;-78
2020/12/14 09:18:23;;;;;;;14.80;13.38;;;1.00;82.90;;;;;;4987912;29;20118;-76
2020/12/14 09:21:03;;;;;;;13.73;12.63;;;1.20;83.60;;;;;;4981836;29;20394;-78
2020/12/14 09:23:35;;;;;;;13.82;12.73;;;1.30;83.00;;;;;;4969767;29;20058;-79
2020/12/14 09:26:06;;;;;;;13.00;11.90;;;1.50;82.90;;;;;;4978074;29;20062;-77
2020/12/14 09:28:38;;;;;;;15.57;14.23;;;1.70;83.00;;;;;;4967985;29;20115;-76
2020/12/14 09:31:10;;;;;;;14.40;13.20;;;1.80;81.10;;;;;;4982990;29;20125;-79
2020/12/14 09:33:41;;;;;;;13.90;12.70;;;1.80;79.60;;;;;;4963477;29;20707;-80
2020/12/14 09:36:16;;;;;;;14.10;13.00;;;1.60;79.70;;;;;;4968809;29;20056;-77
2020/12/14 09:38:48;;;;;;;13.95;12.80;;;1.60;80.00;;;;;;4977867;29;20076;-79
2020/12/14 09:41:19;;;;;;;13.98;12.88;;;1.70;80.80;;;;;;4984537;29;20123;-77
2020/12/14 09:43:51;;;;;;;14.00;12.90;;;1.80;80.60;;;;;;4968371;29;20664;-77
2020/12/14 09:46:30;;;;;;;13.55;12.45;;;2.00;80.90;;;;;;4986325;29;20582;-78
2020/12/14 09:49:01;;;;;;;13.82;12.82;;;2.20;81.00;;;;;;4992954;29;20046;-79
2020/12/14 09:51:34;;;;;;;13.20;12.20;;;2.30;81.20;;;;;;4984004;29;20065;-77
2020/12/14 09:54:06;;;;;;;15.75;14.25;;;2.40;81.00;;;;;;4974726;29;20070;-75
2020/12/14 09:56:41;;;;;;;15.15;13.75;;;2.40;81.20;;;;;;4984012;29;20050;-77
2020/12/14 09:59:13;;;;;;;14.88;13.60;;;2.50;81.50;;;;;;4985387;29;20529;-77
2020/12/14 10:01:44;;;;;;;14.30;13.02;;;2.60;81.30;;;;;;4968393;29;20042;-78
2020/12/14 10:04:16;;;;;;;14.55;13.35;;;2.70;81.10;;;;;;4985981;29;20042;-76
2020/12/14 10:06:48;;;;;;;14.20;13.05;;;2.80;80.00;;;;;;4986748;29;20050;-78
2020/12/14 10:09:20;;;;;;;14.18;13.07;;;2.80;80.70;;;;;;4988686;29;20046;-79
2020/12/14 10:11:51;;;;;;;14.27;13.10;;;2.80;80.30;;;;;;4981986;29;20051;-77
2020/12/14 10:14:23;;;;;;;14.75;13.52;;;2.90;80.40;;;;;;4984263;29;20157;-77
2020/12/14 10:16:55;;;;;;;14.30;13.20;;;3.00;80.70;;;;;;4978049;29;20128;-76
2020/12/14 10:19:26;;;;;;;14.02;13.02;;;3.10;80.40;;;;;;4966788;29;20039;-76
2020/12/14 10:22:01;;;;;;;15.38;14.18;;;3.10;79.30;;;;;;4983393;29;20060;-79
2020/12/14 10:24:33;;;;;;;14.68;13.57;;;3.20;79.60;;;;;;4967923;29;20046;-78
2020/12/14 10:27:05;;;;;;;15.10;13.90;;;3.20;80.00;;;;;;4987434;29;20054;-78
2020/12/14 10:29:37;;;;;;;16.63;15.23;;;3.30;80.70;;;;;;4976335;29;20102;-78
2020/12/14 10:32:09;;;;;;;15.05;13.88;;;3.40;80.40;;;;;;4985179;29;20045;-77
2020/12/14 10:34:40;;;;;;;14.27;13.07;;;3.50;81.00;;;;;;4984809;29;20076;-76
2020/12/14 10:37:12;;;;;;;13.88;12.68;;;3.60;80.90;;;;;;4982456;29;20042;-77
2020/12/14 10:39:43;;;;;;;13.82;12.82;;;3.70;80.80;;;;;;4986467;29;20509;-77
2020/12/14 10:42:15;;;;;;;14.52;13.43;;;3.70;80.30;;;;;;4982539;29;20425;-78
2020/12/14 10:44:46;;;;;;;14.00;13.00;;;3.80;79.50;;;;;;4977865;29;20054;-77
2020/12/14 10:47:18;;;;;;;14.05;13.05;;;3.80;79.40;;;;;;4973758;29;20076;-78
2020/12/14 10:49:50;;;;;;;14.27;13.23;;;3.80;78.40;;;;;;4983522;29;20567;-76
2020/12/14 10:52:22;;;;;;;14.18;13.18;;;3.80;78.60;;;;;;4985474;29;20057;-79
2020/12/14 10:54:54;;;;;;;13.77;12.63;;;3.70;78.40;;;;;;4977923;29;20054;-77
2020/12/14 10:57:25;;;;;;;14.10;13.10;;;3.70;79.50;;;;;;4980323;29;20103;-77
2020/12/14 11:00:06;;;;;;;14.50;13.50;;;3.70;79.90;;;;;;4985395;29;20461;-77
2020/12/14 11:02:39;;;;;;;14.13;13.13;;;3.70;79.80;;;;;;4982336;29;20054;-77
2020/12/14 11:05:11;;;;;;;13.45;12.43;;;3.90;80.00;;;;;;4980844;29;20138;-83
2020/12/14 11:07:43;;;;;;;14.07;13.07;;;4.00;80.30;;;;;;4975146;29;20103;-79
2020/12/14 11:10:15;;;;;;;13.90;12.90;;;4.10;80.40;;;;;;4983508;29;20046;-81
2020/12/14 11:12:47;;;;;;;13.80;12.70;;;4.10;79.20;;;;;;4983619;29;20031;-80
2020/12/14 11:15:19;;;;;;;13.82;12.82;;;4.20;79.80;;;;;;4972651;29;20047;-80
2020/12/14 11:17:51;;;;;;;14.43;13.32;;;4.20;79.40;;;;;;4984429;29;20057;-80
2020/12/14 11:20:22;;;;;;;13.95;12.85;;;4.40;80.00;;;;;;4981920;29;20073;-80
2020/12/14 11:22:54;;;;;;;13.68;12.68;;;4.40;80.00;;;;;;4983819;29;20557;-81
2020/12/14 11:25:25;;;;;;;13.77;12.68;;;4.50;78.80;;;;;;4982725;29;20073;-79
2020/12/14 11:27:57;;;;;;;14.57;13.38;;;4.40;79.60;;;;;;4962631;29;20050;-80
2020/12/14 11:30:28;;;;;;;13.68;12.68;;;4.50;79.30;;;;;;4982663;29;20056;-80
2020/12/14 11:33:00;;;;;;;14.48;13.27;;;4.50;79.40;;;;;;4972085;29;20043;-81
2020/12/14 11:35:32;;;;;;;14.80;13.60;;;4.50;77.50;;;;;;4982623;29;20536;-80
2020/12/14 11:38:03;;;;;;;15.18;13.77;;;4.40;77.70;;;;;;4985861;29;20636;-79
2020/12/14 11:40:35;;;;;;;13.95;12.90;;;4.40;78.70;;;;;;4983033;29;20560;-79
2020/12/14 11:43:07;;;;;;;14.43;13.23;;;4.50;78.20;;;;;;4982999;29;20521;-78
2020/12/14 11:45:58;;;;;;;14.95;13.73;;;4.50;78.80;;;;;;4974263;29;20054;-80
2020/12/14 11:48:30;;;;;;;13.48;12.48;;;4.60;79.20;;;;;;4984518;29;20103;-79
2020/12/14 11:51:02;;;;;;;13.93;12.93;;;4.60;78.10;;;;;;4952511;29;20054;-81
2020/12/14 11:53:34;;;;;;;14.50;13.40;;;4.60;78.80;;;;;;4983627;29;20050;-80
2020/12/14 11:56:06;;;;;;;14.27;13.07;;;4.60;78.90;;;;;;4982194;29;20046;-82
2020/12/14 11:58:37;;;;;;;14.52;13.43;;;4.70;79.80;;;;;;4985193;29;20050;-80
2020/12/14 12:01:09;;;;;;;14.73;13.63;;;4.80;79.90;;;;;;4976527;29;20046;-79
2020/12/14 12:03:40;;;;;;;13.25;12.32;;;4.90;80.00;;;;;;4981864;29;20050;-78
2020/12/14 12:06:12;;;;;;;13.82;12.82;;;5.00;80.00;;;;;;4980963;29;20054;-78
2020/12/14 12:08:44;;;;;;;13.77;12.77;;;5.00;79.90;;;;;;4972330;29;20765;-79
2020/12/14 12:11:16;;;;;;;13.98;12.93;;;5.10;79.40;;;;;;4980402;29;20133;-79
2020/12/14 12:13:47;;;;;;;13.82;12.82;;;5.00;79.90;;;;;;4972253;29;20053;-79
2020/12/14 12:16:19;;;;;;;13.25;12.35;;;5.00;79.70;;;;;;4972608;29;20054;-80
2020/12/14 12:18:51;;;;;;;13.93;12.93;;;5.00;79.40;;;;;;4983990;29;20051;-79
2020/12/14 12:21:22;;;;;;;13.55;12.55;;;5.10;79.80;;;;;;4985253;29;20042;-77
2020/12/14 12:23:54;;;;;;;13.07;12.13;;;5.10;79.60;;;;;;4982361;29;20054;-82
2020/12/14 12:26:25;;;;;;;13.75;12.80;;;5.20;80.30;;;;;;4982715;29;20107;-80
2020/12/14 12:28:57;;;;;;;14.30;13.18;;;5.10;78.90;;;;;;4982524;29;20812;-79
2020/12/14 12:31:28;;;;;;;14.73;13.52;;;5.10;79.20;;;;;;4982233;29;20065;-78
2020/12/14 12:34:00;;;;;;;13.48;12.48;;;5.10;79.30;;;;;;4980698;29;20043;-80
2020/12/14 12:36:32;;;;;;;13.90;12.90;;;5.10;79.40;;;;;;4967954;29;20055;-81
2020/12/14 12:39:03;;;;;;;13.63;12.63;;;5.20;79.60;;;;;;4973133;29;20054;-79
2020/12/14 12:41:35;;;;;;;13.68;12.68;;;5.20;79.60;;;;;;4967780;29;20047;-79
2020/12/14 12:44:06;;;;;;;13.10;12.10;;;5.10;79.50;;;;;;4962170;29;20912;-79
2020/12/14 12:46:38;;;;;;;13.52;12.52;;;5.20;79.10;;;;;;4982570;29;20058;-79
2020/12/14 12:49:10;;;;;;;13.90;12.90;;;5.10;79.10;;;;;;4982278;29;20130;-80
2020/12/14 12:51:47;;;;;;;14.40;13.30;;;5.10;79.20;;;;;;4981783;29;20058;-81
2020/12/14 12:54:19;;;;;;;13.77;12.77;;;5.10;79.50;;;;;;4983458;29;20037;-80
2020/12/14 12:56:50;;;;;;;14.15;13.13;;;5.10;79.80;;;;;;4982507;29;20088;-81
2020/12/14 12:59:22;;;;;;;14.20;13.10;;;5.10;79.10;;;;;;4981367;29;20050;-81
2020/12/14 13:01:54;;;;;;;13.90;12.90;;;5.10;79.10;;;;;;4974499;29;20049;-80
2020/12/14 13:04:25;;;;;;;13.38;12.45;;;5.10;79.10;;;;;;4980142;29;20062;-78
2020/12/14 13:06:57;;;;;;;14.00;13.00;;;5.10;78.70;;;;;;4979481;29;20517;-79